Time;durP1;ratioP1;P1;durP2;ratioP2;P2;SDS_P1;SDS_P2;PMS_P1;PMS_P2;Temp;Humidity;BMP_temperature;BMP_pressure;BME280_temperature;BME280_humidity;BME280_pressure;Samples;Min_cycle;Max_cycle;Signal;HPM_P1;HPM_P2
2023/05/09 00:00:45;;;;;;;15.50;13.67;;;;;21.70;100664.00;;;;2077586;28;20214;-49
2023/05/09 00:01:45;;;;;;;16.30;13.70;;;;;21.70;100660.00;;;;2076838;28;20707;-48
2023/05/09 00:02:46;;;;;;;12.90;11.60;;;;;21.70;100663.00;;;;2077542;28;20210;-48
2023/05/09 00:03:47;;;;;;;14.40;12.90;;;;;21.70;100659.00;;;;2067017;28;20233;-49
2023/05/09 00:04:47;;;;;;;12.07;10.87;;;;;21.70;100663.00;;;;2077007;28;20475;-48
2023/05/09 00:05:48;;;;;;;14.60;13.10;;;;;21.70;100673.00;;;;2076135;28;20213;-48
2023/05/09 00:06:48;;;;;;;12.33;11.03;;;;;21.70;100656.00;;;;2076592;28;20721;-49
2023/05/09 00:07:48;;;;;;;13.03;11.53;;;;;21.70;100657.00;;;;2077333;28;20224;-50
2023/05/09 00:08:49;;;;;;;13.10;11.70;;;;;21.60;100657.00;;;;2066850;28;20225;-49
2023/05/09 00:09:49;;;;;;;13.97;12.50;;;;;21.70;100654.00;;;;2076746;28;20244;-49
2023/05/09 00:10:50;;;;;;;14.80;13.23;;;;;21.70;100655.00;;;;2076473;28;20217;-48
2023/05/09 00:11:50;;;;;;;13.87;12.37;;;;;21.70;100653.00;;;;2077040;28;20213;-48
2023/05/09 00:12:51;;;;;;;13.70;11.83;;;;;21.70;100652.00;;;;2076711;28;20217;-47
2023/05/09 00:13:52;;;;;;;14.40;12.90;;;;;21.70;100649.00;;;;2062436;28;20291;-48
2023/05/09 00:14:53;;;;;;;12.77;11.50;;;;;21.70;100645.00;;;;2077324;28;20296;-48
2023/05/09 00:15:53;;;;;;;13.15;11.82;;;;;21.70;100645.00;;;;2075947;28;20271;-48
2023/05/09 00:16:53;;;;;;;12.30;11.10;;;;;21.70;100647.00;;;;2077006;28;20205;-48
2023/05/09 00:17:54;;;;;;;12.47;11.27;;;;;21.70;100646.00;;;;2076658;28;20695;-48
2023/05/09 00:18:56;;;;;;;13.50;12.20;;;;;21.70;100650.00;;;;2066811;28;20663;-48
2023/05/09 00:19:57;;;;;;;12.43;11.15;;;;;21.70;100649.00;;;;2076218;28;20213;-48
2023/05/09 00:20:57;;;;;;;13.13;11.90;;;;;21.70;100649.00;;;;2074035;28;20312;-48
2023/05/09 00:21:57;;;;;;;12.20;11.00;;;;;21.70;100647.00;;;;2071757;28;20210;-48
2023/05/09 00:22:58;;;;;;;12.60;11.37;;;;;21.70;100642.00;;;;2075682;28;20252;-48
2023/05/09 00:23:59;;;;;;;12.93;11.73;;;;;21.70;100642.00;;;;2066365;28;20230;-48
2023/05/09 00:24:59;;;;;;;12.32;11.00;;;;;21.70;100644.00;;;;2074331;28;20217;-48
2023/05/09 00:26:00;;;;;;;12.87;11.63;;;;;21.70;100641.00;;;;2074379;28;20209;-49
2023/05/09 00:27:00;;;;;;;13.07;11.70;;;;;21.60;100637.00;;;;2076633;28;20228;-48
2023/05/09 00:28:01;;;;;;;12.30;11.07;;;;;21.60;100634.00;;;;2076493;28;20239;-49
2023/05/09 00:29:01;;;;;;;12.80;11.57;;;;;21.60;100633.00;;;;2074772;28;20252;-47
2023/05/09 00:30:02;;;;;;;12.50;11.30;;;;;21.70;100624.00;;;;2080639;28;20244;-48
2023/05/09 00:31:03;;;;;;;13.13;11.85;;;;;21.60;100631.00;;;;2077992;28;20252;-47
2023/05/09 00:32:04;;;;;;;12.77;11.47;;;;;21.60;100626.00;;;;2075781;28;21400;-49
2023/05/09 00:33:05;;;;;;;13.43;12.03;;;;;21.60;100624.00;;;;2077067;28;20276;-48
2023/05/09 00:34:05;;;;;;;11.75;10.65;;;;;21.60;100620.00;;;;2066978;28;20225;-48
2023/05/09 00:35:07;;;;;;;11.07;10.00;;;;;21.60;100624.00;;;;2076302;28;20218;-49
2023/05/09 00:36:07;;;;;;;11.32;10.13;;;;;21.70;100627.00;;;;2076940;28;20660;-49
2023/05/09 00:37:08;;;;;;;10.80;9.80;;;;;21.70;100623.00;;;;2075772;28;20225;-49
2023/05/09 00:38:08;;;;;;;11.67;10.47;;;;;21.60;100628.00;;;;2077205;28;20682;-49
2023/05/09 00:39:08;;;;;;;10.57;9.57;;;;;21.70;100617.00;;;;2060878;28;20638;-49
2023/05/09 00:40:09;;;;;;;11.47;10.40;;;;;21.50;100621.00;;;;2069467;28;20295;-49
2023/05/09 00:41:09;;;;;;;12.60;10.53;;;;;21.60;100624.00;;;;2072699;28;20229;-49
2023/05/09 00:42:10;;;;;;;11.60;10.37;;;;;21.70;100622.00;;;;2076140;28;20472;-49
2023/05/09 00:43:10;;;;;;;13.40;12.00;;;;;21.70;100613.00;;;;2076960;28;20723;-49
2023/05/09 00:44:11;;;;;;;11.90;10.77;;;;;21.60;100616.00;;;;2073760;28;20223;-49
2023/05/09 00:45:11;;;;;;;12.20;10.90;;;;;21.70;100610.00;;;;2084460;28;20240;-49
2023/05/09 00:46:11;;;;;;;11.67;10.47;;;;;21.60;100607.00;;;;2076478;28;21031;-49
2023/05/09 00:47:12;;;;;;;10.57;9.27;;;;;21.60;100616.00;;;;2076688;28;21028;-50
2023/05/09 00:48:13;;;;;;;10.50;9.50;;;;;21.70;100611.00;;;;2076095;28;20607;-49
2023/05/09 00:49:14;;;;;;;11.18;9.90;;;;;21.40;100603.00;;;;2064655;28;20218;-49
2023/05/09 00:50:15;;;;;;;10.60;9.60;;;;;21.60;100612.00;;;;2063891;28;20694;-50
2023/05/09 00:51:15;;;;;;;11.10;10.00;;;;;21.60;100602.00;;;;2067111;28;20218;-50
2023/05/09 00:52:20;;;;;;;10.33;9.33;;;;;21.60;100612.00;;;;2076966;28;20228;-47
2023/05/09 00:53:20;;;;;;;10.35;9.35;;;;;21.60;100607.00;;;;2066258;28;20220;-46
2023/05/09 00:54:21;;;;;;;10.40;9.40;;;;;21.60;100608.00;;;;2077084;28;20230;-47
2023/05/09 00:55:22;;;;;;;9.43;8.43;;;;;21.70;100612.00;;;;2076385;28;20256;-47
2023/05/09 00:56:22;;;;;;;10.50;9.50;;;;;21.60;100608.00;;;;2075362;28;20260;-47
2023/05/09 00:57:22;;;;;;;10.67;9.73;;;;;21.60;100606.00;;;;2075822;28;20460;-47
2023/05/09 00:58:23;;;;;;;10.67;9.67;;;;;21.60;100601.00;;;;2065974;28;20213;-46
2023/05/09 00:59:23;;;;;;;9.10;8.20;;;;;21.60;100600.00;;;;2076630;28;20681;-46
2023/05/09 01:00:24;;;;;;;9.53;8.63;;;;;21.60;100597.00;;;;2075453;28;20752;-47
2023/05/09 01:01:25;;;;;;;10.87;9.83;;;;;21.60;100596.00;;;;2074387;28;20230;-47
2023/05/09 01:02:26;;;;;;;9.50;8.57;;;;;21.60;100594.00;;;;2076029;28;20290;-46
2023/05/09 01:03:26;;;;;;;9.55;8.65;;;;;21.60;100594.00;;;;2066557;28;20456;-47
2023/05/09 01:04:26;;;;;;;10.33;9.30;;;;;21.60;100593.00;;;;2076644;28;20232;-46
2023/05/09 01:05:33;;;;;;;10.43;9.37;;;;;21.60;100590.00;;;;2075815;28;20267;-47
2023/05/09 01:06:53;;;;;;;10.30;9.25;;;;;21.60;100592.00;;;;2075682;28;20228;-46
2023/05/09 01:07:59;;;;;;;9.77;8.77;;;;;21.60;100581.00;;;;2073343;28;20589;-47
2023/05/09 01:09:04;;;;;;;10.65;9.57;;;;;21.60;100576.00;;;;2066785;28;20232;-47
2023/05/09 01:10:30;;;;;;;9.77;8.88;;;;;21.60;100582.00;;;;2074291;28;20260;-47
2023/05/09 01:11:34;;;;;;;9.63;8.73;;;;;21.60;100581.00;;;;2072309;28;20257;-47
2023/05/09 01:12:48;;;;;;;8.80;7.95;;;;;21.60;100581.00;;;;2073781;28;20221;-47
2023/05/09 01:13:56;;;;;;;9.50;8.60;;;;;21.60;100537.00;;;;2065852;28;20616;-47
2023/05/09 01:15:15;;;;;;;9.20;8.40;;;;;21.60;100573.00;;;;2075240;28;20609;-47
2023/05/09 01:16:18;;;;;;;9.98;9.02;;;;;21.60;100581.00;;;;2076471;28;20224;-48
2023/05/09 01:17:43;;;;;;;8.52;7.78;;;;;21.60;100579.00;;;;2074761;28;20232;-46
2023/05/09 01:18:55;;;;;;;8.35;7.65;;;;;21.60;100564.00;;;;2057860;28;20284;-47
2023/05/09 01:19:55;;;;;;;8.63;7.82;;;;;21.60;100572.00;;;;2054998;28;20223;-47
2023/05/09 01:21:10;;;;;;;9.60;8.70;;;;;21.60;100570.00;;;;2068017;28;20302;-47
2023/05/09 01:22:11;;;;;;;8.68;7.88;;;;;21.60;100571.00;;;;2075133;28;20212;-46
2023/05/09 01:23:14;;;;;;;8.97;8.17;;;;;21.60;100565.00;;;;2067556;28;20218;-47
2023/05/09 01:24:29;;;;;;;9.35;8.48;;;;;21.60;100572.00;;;;2064551;28;20217;-49
2023/05/09 01:25:37;;;;;;;8.98;8.15;;;;;21.60;100560.00;;;;2071519;28;20288;-47
2023/05/09 01:26:45;;;;;;;9.35;8.45;;;;;21.60;100564.00;;;;2075630;28;20304;-47
2023/05/09 01:27:47;;;;;;;9.13;8.23;;;;;21.60;100566.00;;;;2075072;28;20247;-47
2023/05/09 01:29:06;;;;;;;9.32;8.52;;;;;21.60;100570.00;;;;2056531;28;20572;-47
2023/05/09 01:30:07;;;;;;;8.93;8.13;;;;;21.60;100563.00;;;;2064916;28;20233;-47
2023/05/09 01:31:07;;;;;;;8.70;7.90;;;;;21.60;100568.00;;;;2074349;28;20783;-47
2023/05/09 01:32:18;;;;;;;7.77;7.07;;;;;21.60;100578.00;;;;2067708;28;20325;-46
2023/05/09 01:33:19;;;;;;;9.63;8.82;;;;;21.60;100565.00;;;;2057779;28;21149;-47
2023/05/09 01:34:19;;;;;;;8.17;7.40;;;;;21.60;100555.00;;;;2057443;28;20313;-47
2023/05/09 01:35:20;;;;;;;8.67;7.87;;;;;21.60;100565.00;;;;2051145;28;20220;-47
2023/05/09 01:36:20;;;;;;;8.30;7.60;;;;;21.60;100555.00;;;;2064782;28;20265;-48
2023/05/09 01:37:31;;;;;;;7.80;7.10;;;;;21.50;100553.00;;;;2073256;28;20309;-49
2023/05/09 01:38:32;;;;;;;8.23;7.43;;;;;21.60;100556.00;;;;2063973;28;20689;-47
2023/05/09 01:39:32;;;;;;;7.50;6.90;;;;;21.60;100551.00;;;;2059135;28;20262;-47
2023/05/09 01:40:33;;;;;;;8.00;7.27;;;;;21.60;100551.00;;;;2066984;28;20301;-47
2023/05/09 01:41:35;;;;;;;8.13;7.43;;;;;21.60;100546.00;;;;2067754;28;20210;-47
2023/05/09 01:43:02;;;;;;;9.45;8.35;;;;;21.60;100544.00;;;;2066367;28;20606;-46
2023/05/09 01:44:05;;;;;;;8.60;7.72;;;;;21.60;100551.00;;;;2066850;28;20305;-47
2023/05/09 01:45:06;;;;;;;8.82;7.93;;;;;21.60;100549.00;;;;2073922;28;20331;-47
2023/05/09 01:46:06;;;;;;;7.78;7.18;;;;;21.60;100550.00;;;;2059563;28;20226;-46
2023/05/09 01:47:07;;;;;;;8.23;7.53;;;;;21.60;100550.00;;;;2062931;28;21084;-47
2023/05/09 01:48:07;;;;;;;8.30;7.50;;;;;21.60;100543.00;;;;2079162;28;20243;-47
2023/05/09 01:49:08;;;;;;;8.07;7.37;;;;;21.60;100542.00;;;;2057819;28;20297;-46
2023/05/09 01:50:10;;;;;;;8.20;7.50;;;;;21.60;100546.00;;;;2063441;28;20340;-47
2023/05/09 01:51:11;;;;;;;7.95;7.25;;;;;21.60;100541.00;;;;2075941;28;20228;-46
2023/05/09 01:52:13;;;;;;;8.68;7.78;;;;;21.60;100542.00;;;;2066775;28;20272;-47
2023/05/09 01:53:14;;;;;;;8.60;7.80;;;;;21.60;100551.00;;;;2077688;28;20228;-47
2023/05/09 01:54:14;;;;;;;7.50;6.90;;;;;21.60;100548.00;;;;2065133;28;20216;-46
2023/05/09 01:55:14;;;;;;;7.77;7.10;;;;;21.60;100544.00;;;;2059541;28;20218;-47
2023/05/09 01:56:15;;;;;;;8.07;7.47;;;;;21.50;100551.00;;;;2063547;28;20218;-47
2023/05/09 01:57:15;;;;;;;8.23;7.43;;;;;21.50;100547.00;;;;2075142;28;20214;-47
2023/05/09 01:58:15;;;;;;;7.90;7.13;;;;;21.40;100567.00;;;;2062030;28;20601;-46
2023/05/09 01:59:16;;;;;;;8.00;7.30;;;;;21.60;100524.00;;;;2063475;28;20641;-48
2023/05/09 02:00:16;;;;;;;7.83;7.13;;;;;21.60;100547.00;;;;2066525;28;20350;-46
2023/05/09 02:01:17;;;;;;;7.83;7.13;;;;;21.60;100547.00;;;;2065196;28;20362;-47
2023/05/09 02:02:17;;;;;;;7.87;7.17;;;;;21.60;100548.00;;;;2072426;28;20305;-47
2023/05/09 02:03:18;;;;;;;7.93;7.23;;;;;21.60;100547.00;;;;2065634;28;20463;-47
2023/05/09 02:04:18;;;;;;;7.23;6.63;;;;;21.60;100554.00;;;;2066982;28;20275;-47
2023/05/09 02:05:18;;;;;;;8.03;7.33;;;;;21.60;100551.00;;;;2064055;28;20229;-46
2023/05/09 02:06:20;;;;;;;7.50;6.80;;;;;21.60;100540.00;;;;2057271;28;20224;-47
2023/05/09 02:07:21;;;;;;;8.35;7.55;;;;;21.60;100552.00;;;;2059966;28;20223;-47
2023/05/09 02:08:22;;;;;;;8.02;7.22;;;;;21.50;100528.00;;;;2057124;28;20300;-47
2023/05/09 02:09:22;;;;;;;8.20;7.50;;;;;21.60;100545.00;;;;2064771;28;20648;-47
2023/05/09 02:10:24;;;;;;;8.30;7.50;;;;;21.40;100544.00;;;;2075302;28;20217;-47
2023/05/09 02:11:24;;;;;;;7.78;7.05;;;;;21.60;100551.00;;;;2082557;28;20209;-47
2023/05/09 02:12:25;;;;;;;7.57;6.90;;;;;21.60;100545.00;;;;2067479;28;20218;-47
2023/05/09 02:13:25;;;;;;;7.27;6.67;;;;;21.50;100547.00;;;;2053562;28;20211;-46
2023/05/09 02:14:25;;;;;;;7.57;6.93;;;;;21.60;100549.00;;;;2075842;28;20571;-47
2023/05/09 02:15:26;;;;;;;7.40;6.70;;;;;21.60;100550.00;;;;2075633;28;20224;-46
2023/05/09 02:16:26;;;;;;;7.77;7.07;;;;;21.60;100540.00;;;;2075966;28;20217;-47
2023/05/09 02:17:29;;;;;;;7.70;7.00;;;;;21.60;100546.00;;;;2075385;28;20738;-47
2023/05/09 02:18:31;;;;;;;7.28;6.68;;;;;21.60;100543.00;;;;2063236;28;20213;-47
2023/05/09 02:19:33;;;;;;;7.85;7.15;;;;;21.60;100552.00;;;;2075649;28;20736;-46
2023/05/09 02:20:34;;;;;;;6.82;6.22;;;;;21.60;100547.00;;;;2075485;28;20296;-47
2023/05/09 02:21:35;;;;;;;7.78;7.10;;;;;21.60;100548.00;;;;2076557;28;20217;-47
2023/05/09 02:22:36;;;;;;;7.30;6.60;;;;;21.50;100554.00;;;;2075348;28;20308;-47
2023/05/09 02:23:36;;;;;;;7.50;6.90;;;;;21.60;100546.00;;;;2065821;28;20218;-47
2023/05/09 02:24:36;;;;;;;7.23;6.60;;;;;21.60;100553.00;;;;2066796;28;20376;-47
2023/05/09 02:25:37;;;;;;;7.50;6.90;;;;;21.60;100547.00;;;;2067599;28;20229;-47
2023/05/09 02:26:37;;;;;;;7.47;6.87;;;;;21.60;100545.00;;;;2075596;28;20238;-47
2023/05/09 02:27:37;;;;;;;7.90;7.20;;;;;21.50;100540.00;;;;2074719;28;20229;-47
2023/05/09 02:28:38;;;;;;;7.20;6.50;;;;;21.50;100550.00;;;;2057430;28;20231;-47
2023/05/09 02:29:41;;;;;;;7.00;6.40;;;;;21.50;100544.00;;;;2065692;28;20248;-47
2023/05/09 02:30:42;;;;;;;7.82;7.05;;;;;21.60;100541.00;;;;2067534;28;20610;-46
2023/05/09 02:31:42;;;;;;;7.30;6.70;;;;;21.60;100546.00;;;;2074916;28;20296;-46
2023/05/09 02:32:43;;;;;;;7.70;7.07;;;;;21.60;100551.00;;;;2075785;28;20233;-47
2023/05/09 02:33:43;;;;;;;7.33;6.73;;;;;21.60;100540.00;;;;2065865;28;20228;-46
2023/05/09 02:34:44;;;;;;;7.53;6.83;;;;;21.50;100547.00;;;;2083146;28;20714;-46
2023/05/09 02:35:45;;;;;;;8.30;7.10;;;;;21.50;100548.00;;;;2075767;28;20232;-45
2023/05/09 02:36:45;;;;;;;6.85;6.30;;;;;21.60;100556.00;;;;2069880;28;20337;-46
2023/05/09 02:37:45;;;;;;;7.10;6.50;;;;;21.50;100555.00;;;;2059302;28;20222;-46
2023/05/09 02:38:46;;;;;;;8.20;6.87;;;;;21.50;100544.00;;;;2047136;28;20207;-45
2023/05/09 02:39:46;;;;;;;7.13;6.53;;;;;21.50;100551.00;;;;2067432;28;20785;-46
2023/05/09 02:40:47;;;;;;;7.03;6.43;;;;;21.60;100546.00;;;;2075668;28;20267;-46
2023/05/09 02:41:48;;;;;;;7.17;6.57;;;;;21.50;100544.00;;;;2066257;28;20210;-46
2023/05/09 02:42:48;;;;;;;7.20;6.60;;;;;21.50;100546.00;;;;2067149;28;20890;-47
2023/05/09 02:43:49;;;;;;;7.63;6.93;;;;;21.50;100538.00;;;;2065865;28;20221;-46
2023/05/09 02:44:50;;;;;;;7.70;7.10;;;;;21.50;100546.00;;;;2075785;28;20292;-45
2023/05/09 02:45:51;;;;;;;7.00;6.40;;;;;21.60;100543.00;;;;2075171;28;20256;-46
2023/05/09 02:46:51;;;;;;;7.70;6.90;;;;;21.50;100541.00;;;;2076994;28;20272;-47
2023/05/09 02:47:51;;;;;;;7.50;6.90;;;;;21.50;100542.00;;;;2083934;28;20216;-47
2023/05/09 02:48:51;;;;;;;7.50;6.80;;;;;21.50;100542.00;;;;2065573;28;20297;-46
2023/05/09 02:49:52;;;;;;;6.67;6.07;;;;;21.50;100536.00;;;;2076349;28;20212;-46
2023/05/09 02:50:52;;;;;;;8.20;7.50;;;;;21.50;100541.00;;;;2078699;28;20206;-46
2023/05/09 02:51:52;;;;;;;7.20;6.53;;;;;21.50;100535.00;;;;2076548;28;20283;-47
2023/05/09 02:52:53;;;;;;;6.90;6.30;;;;;21.50;100530.00;;;;2075372;28;20344;-47
2023/05/09 02:53:53;;;;;;;7.80;7.10;;;;;21.50;100530.00;;;;2058226;28;20206;-47
2023/05/09 02:54:54;;;;;;;6.90;6.30;;;;;21.50;100536.00;;;;2076450;28;20262;-47
2023/05/09 02:55:54;;;;;;;7.23;6.53;;;;;21.60;100540.00;;;;2076000;28;20209;-47
2023/05/09 02:56:54;;;;;;;7.77;7.07;;;;;21.50;100534.00;;;;2075602;28;20252;-47
2023/05/09 02:57:55;;;;;;;7.80;7.20;;;;;21.60;100530.00;;;;2076733;28;20241;-47
2023/05/09 02:58:55;;;;;;;6.27;5.80;;;;;21.50;100522.00;;;;2068031;28;20202;-46
2023/05/09 02:59:55;;;;;;;8.80;7.57;;;;;21.60;100527.00;;;;2076702;28;20206;-47
2023/05/09 03:00:56;;;;;;;7.63;6.97;;;;;21.50;100521.00;;;;2077915;28;20244;-47
2023/05/09 03:01:56;;;;;;;7.70;7.00;;;;;21.60;100527.00;;;;2077566;28;20209;-48
2023/05/09 03:02:57;;;;;;;7.60;7.00;;;;;21.60;100524.00;;;;2076742;28;20213;-47
2023/05/09 03:03:57;;;;;;;7.67;7.00;;;;;21.50;100536.00;;;;2068203;28;20673;-46
2023/05/09 03:04:57;;;;;;;6.80;6.20;;;;;21.50;100531.00;;;;2078399;28;20209;-46
2023/05/09 03:05:58;;;;;;;7.80;7.10;;;;;21.50;100524.00;;;;2084662;28;20241;-46
2023/05/09 03:06:58;;;;;;;7.20;6.60;;;;;21.50;100527.00;;;;2077060;28;20336;-46
2023/05/09 03:07:58;;;;;;;7.60;7.00;;;;;21.50;100526.00;;;;2077588;28;20289;-46
2023/05/09 03:08:59;;;;;;;6.63;6.03;;;;;21.50;100528.00;;;;2067651;28;20213;-47
2023/05/09 03:09:59;;;;;;;7.20;6.60;;;;;21.50;100527.00;;;;2076444;28;20229;-47
2023/05/09 03:10:59;;;;;;;7.30;6.67;;;;;21.50;100518.00;;;;2077538;28;20214;-46
2023/05/09 03:12:00;;;;;;;7.70;7.07;;;;;21.50;100522.00;;;;2076938;28;20214;-47
2023/05/09 03:13:00;;;;;;;7.73;7.10;;;;;21.50;100528.00;;;;2079767;28;20212;-46
2023/05/09 03:14:01;;;;;;;7.60;6.90;;;;;21.50;100524.00;;;;2068083;28;20301;-46
2023/05/09 03:15:01;;;;;;;7.90;7.20;;;;;21.50;100532.00;;;;2077178;28;20716;-47
2023/05/09 03:16:02;;;;;;;6.53;6.03;;;;;21.50;100525.00;;;;2078947;28;20209;-47
2023/05/09 03:17:02;;;;;;;7.03;6.33;;;;;21.50;100528.00;;;;2077017;28;20210;-46
2023/05/09 03:18:02;;;;;;;8.20;7.40;;;;;21.50;100525.00;;;;2077506;28;20231;-46
2023/05/09 03:19:03;;;;;;;8.30;7.60;;;;;21.50;100523.00;;;;2064289;28;20237;-46
2023/05/09 03:20:04;;;;;;;7.97;7.27;;;;;21.50;100522.00;;;;2074329;28;20594;-46
2023/05/09 03:21:05;;;;;;;7.03;6.32;;;;;21.50;100529.00;;;;2073701;28;20216;-46
2023/05/09 03:22:05;;;;;;;8.33;7.63;;;;;21.50;100524.00;;;;2077637;28;20221;-46
2023/05/09 03:23:05;;;;;;;7.90;7.10;;;;;21.50;100515.00;;;;2077595;28;20220;-46
2023/05/09 03:24:06;;;;;;;8.40;7.33;;;;;21.50;100521.00;;;;2067297;28;20209;-47
2023/05/09 03:25:07;;;;;;;8.60;7.90;;;;;21.50;100518.00;;;;2077522;28;20592;-46
2023/05/09 03:26:07;;;;;;;5.87;5.37;;;;;21.50;100489.00;;;;2074004;28;20214;-47
2023/05/09 03:27:07;;;;;;;6.70;6.10;;;;;21.50;100524.00;;;;2072195;28;20907;-46
2023/05/09 03:28:07;;;;;;;6.90;6.30;;;;;21.50;100509.00;;;;2075704;28;20634;-46
2023/05/09 03:29:08;;;;;;;8.20;7.50;;;;;21.50;100520.00;;;;2067537;28;20218;-46
2023/05/09 03:30:09;;;;;;;7.60;7.00;;;;;21.50;100521.00;;;;2077166;28;20244;-46
2023/05/09 03:31:09;;;;;;;7.80;7.10;;;;;21.50;100515.00;;;;2079695;28;20246;-47
2023/05/09 03:32:09;;;;;;;7.10;6.50;;;;;21.50;100516.00;;;;2079555;28;20271;-47
2023/05/09 03:33:10;;;;;;;7.80;7.10;;;;;21.50;100516.00;;;;2072926;28;21067;-48
2023/05/09 03:34:13;;;;;;;8.00;7.30;;;;;21.60;100511.00;;;;2067759;28;20288;-47
2023/05/09 03:35:14;;;;;;;7.18;6.57;;;;;21.50;100511.00;;;;2076403;28;20229;-48
2023/05/09 03:36:14;;;;;;;8.20;7.40;;;;;21.50;100514.00;;;;2081138;28;20224;-46
2023/05/09 03:37:14;;;;;;;9.00;7.60;;;;;21.50;100517.00;;;;2080470;28;20275;-46
2023/05/09 03:38:15;;;;;;;7.20;6.60;;;;;21.50;100519.00;;;;2074479;28;20221;-50
2023/05/09 03:39:15;;;;;;;8.00;7.30;;;;;21.50;100512.00;;;;2070250;28;20283;-46
2023/05/09 03:40:15;;;;;;;7.77;7.10;;;;;21.50;100517.00;;;;2076181;28;20729;-47
2023/05/09 03:41:16;;;;;;;7.10;6.47;;;;;21.50;100513.00;;;;2077526;28;20247;-47
2023/05/09 03:42:17;;;;;;;7.73;7.07;;;;;21.50;100512.00;;;;2077503;28;20218;-46
2023/05/09 03:43:17;;;;;;;7.20;6.60;;;;;21.50;100513.00;;;;2066279;28;20229;-48
2023/05/09 03:44:17;;;;;;;7.63;6.93;;;;;21.50;100509.00;;;;2077424;28;20222;-47
2023/05/09 03:45:18;;;;;;;7.30;6.70;;;;;21.50;100513.00;;;;2076360;28;20312;-47
2023/05/09 03:46:18;;;;;;;7.00;6.40;;;;;21.50;100546.00;;;;2077505;28;20225;-47
2023/05/09 03:47:18;;;;;;;7.90;7.10;;;;;21.50;100516.00;;;;2076583;28;20716;-46
2023/05/09 03:48:19;;;;;;;8.40;7.30;;;;;21.50;100510.00;;;;2067259;28;20561;-46
2023/05/09 03:49:19;;;;;;;8.23;7.53;;;;;21.50;100513.00;;;;2077350;28;20660;-52
2023/05/09 03:50:19;;;;;;;8.60;7.90;;;;;21.50;100507.00;;;;2075348;28;20232;-48
2023/05/09 03:51:20;;;;;;;7.80;7.10;;;;;21.50;100509.00;;;;2077289;28;20304;-48
2023/05/09 03:52:20;;;;;;;7.87;7.17;;;;;21.50;100508.00;;;;2076368;28;20257;-47
2023/05/09 03:53:20;;;;;;;7.27;6.63;;;;;21.50;100502.00;;;;2067873;28;20885;-47
2023/05/09 03:54:21;;;;;;;9.33;8.43;;;;;21.50;100505.00;;;;2074047;28;20579;-47
2023/05/09 03:55:22;;;;;;;7.90;7.20;;;;;21.50;100506.00;;;;2077339;28;20240;-47
2023/05/09 03:56:23;;;;;;;8.07;7.38;;;;;21.50;100509.00;;;;2077390;28;20854;-46
2023/05/09 03:57:23;;;;;;;7.43;6.77;;;;;21.50;100504.00;;;;2076620;28;20213;-47
2023/05/09 03:58:23;;;;;;;7.53;6.93;;;;;21.50;100509.00;;;;2067921;28;20577;-47
2023/05/09 03:59:24;;;;;;;7.60;6.90;;;;;21.50;100502.00;;;;2077739;28;20228;-46
2023/05/09 04:00:25;;;;;;;8.13;7.43;;;;;21.50;100509.00;;;;2076443;28;20213;-47
2023/05/09 04:01:25;;;;;;;8.00;7.30;;;;;21.50;100509.00;;;;2076004;28;20375;-47
2023/05/09 04:02:26;;;;;;;8.10;7.40;;;;;21.50;100499.00;;;;2077588;28;20768;-47
2023/05/09 04:03:26;;;;;;;7.63;6.97;;;;;21.50;100503.00;;;;2071409;28;20942;-47
2023/05/09 04:04:26;;;;;;;8.20;7.50;;;;;21.50;100507.00;;;;2076016;28;20733;-48
2023/05/09 04:05:27;;;;;;;8.30;7.50;;;;;21.50;100501.00;;;;2076707;28;21008;-47
2023/05/09 04:06:28;;;;;;;8.50;7.70;;;;;21.50;100504.00;;;;2075822;28;20564;-47
2023/05/09 04:07:29;;;;;;;8.80;8.00;;;;;21.50;100492.00;;;;2076965;28;20217;-46
2023/05/09 04:08:31;;;;;;;7.93;7.23;;;;;21.50;100493.00;;;;2065579;28;20218;-47
2023/05/09 04:09:31;;;;;;;8.45;7.65;;;;;21.50;100500.00;;;;2071410;28;20466;-47
2023/05/09 04:10:31;;;;;;;7.80;7.10;;;;;21.50;100500.00;;;;2073056;28;20214;-46
2023/05/09 04:11:32;;;;;;;8.00;7.30;;;;;21.50;100516.00;;;;2076431;28;20213;-49
2023/05/09 04:12:32;;;;;;;8.77;7.97;;;;;21.50;100496.00;;;;2077379;28;20747;-49
2023/05/09 04:13:32;;;;;;;7.90;7.20;;;;;21.50;100487.00;;;;2066294;28;20749;-49
2023/05/09 04:14:33;;;;;;;7.67;6.97;;;;;21.50;100488.00;;;;2071810;28;20597;-49
2023/05/09 04:15:33;;;;;;;7.87;7.17;;;;;21.50;100490.00;;;;2073702;28;20240;-50
2023/05/09 04:16:33;;;;;;;7.93;7.20;;;;;21.50;100493.00;;;;2077147;28;20312;-49
2023/05/09 04:17:34;;;;;;;8.50;7.70;;;;;21.50;100498.00;;;;2077024;28;20214;-49
2023/05/09 04:18:35;;;;;;;8.70;7.90;;;;;21.50;100488.00;;;;2065992;28;20230;-49
2023/05/09 04:19:35;;;;;;;8.63;7.72;;;;;21.50;100491.00;;;;2075765;28;20217;-49
2023/05/09 04:20:36;;;;;;;9.80;8.93;;;;;21.50;100489.00;;;;2072501;28;20218;-49
2023/05/09 04:21:36;;;;;;;9.13;8.23;;;;;21.50;100485.00;;;;2077296;28;20217;-49
2023/05/09 04:22:36;;;;;;;9.87;8.90;;;;;21.50;100486.00;;;;2075962;28;20209;-49
2023/05/09 04:23:37;;;;;;;10.90;8.77;;;;;21.50;100490.00;;;;2067514;28;20230;-49
2023/05/09 04:24:38;;;;;;;9.10;8.20;;;;;21.50;100479.00;;;;2075238;28;20248;-49
2023/05/09 04:25:38;;;;;;;9.30;8.40;;;;;21.40;100488.00;;;;2071032;28;20472;-49
2023/05/09 04:26:39;;;;;;;9.00;8.13;;;;;21.50;100486.00;;;;2076920;28;20226;-49
2023/05/09 04:27:39;;;;;;;8.80;8.00;;;;;21.50;100485.00;;;;2076452;28;20299;-49
2023/05/09 04:28:40;;;;;;;8.90;8.00;;;;;21.50;100485.00;;;;2064382;28;20245;-49
2023/05/09 04:29:40;;;;;;;8.13;7.43;;;;;21.50;100481.00;;;;2079170;28;20225;-49
2023/05/09 04:30:41;;;;;;;7.80;7.20;;;;;21.50;100488.00;;;;2081590;28;20245;-49
2023/05/09 04:31:41;;;;;;;9.17;8.27;;;;;21.50;100484.00;;;;2077281;28;20213;-49
2023/05/09 04:32:44;;;;;;;9.30;8.40;;;;;21.50;100481.00;;;;2075505;28;20221;-49
2023/05/09 04:33:45;;;;;;;9.02;8.13;;;;;21.50;100481.00;;;;2068499;28;20216;-49
2023/05/09 04:34:45;;;;;;;9.20;8.30;;;;;21.50;100479.00;;;;2079260;28;20759;-49
2023/05/09 04:35:45;;;;;;;9.53;8.27;;;;;21.50;100478.00;;;;2071673;28;20310;-49
2023/05/09 04:36:46;;;;;;;10.97;9.90;;;;;21.50;100469.00;;;;2075804;28;20678;-50
2023/05/09 04:37:46;;;;;;;9.50;8.60;;;;;21.50;100481.00;;;;2077076;28;20584;-49
2023/05/09 04:38:47;;;;;;;9.57;8.40;;;;;21.50;100480.00;;;;2065520;28;20301;-49
2023/05/09 04:39:47;;;;;;;9.50;8.50;;;;;21.50;100488.00;;;;2066702;28;20214;-50
2023/05/09 04:40:48;;;;;;;9.83;8.87;;;;;21.50;100467.00;;;;2072304;28;20568;-50
2023/05/09 04:41:48;;;;;;;9.37;8.47;;;;;21.50;100466.00;;;;2075735;28;20598;-49
2023/05/09 04:42:49;;;;;;;9.47;8.57;;;;;21.50;100467.00;;;;2077271;28;20232;-49
2023/05/09 04:43:49;;;;;;;9.30;8.40;;;;;21.50;100470.00;;;;2066785;28;20213;-49
2023/05/09 04:44:50;;;;;;;10.37;9.37;;;;;21.50;100469.00;;;;2077062;28;20685;-50
2023/05/09 04:45:50;;;;;;;8.90;8.10;;;;;21.50;100509.00;;;;2076479;28;20603;-51
2023/05/09 04:46:51;;;;;;;9.47;8.53;;;;;21.50;100464.00;;;;2075324;28;20238;-50
2023/05/09 04:47:51;;;;;;;11.27;9.10;;;;;21.50;100460.00;;;;2077110;28;20848;-50
2023/05/09 04:48:52;;;;;;;17.50;10.70;;;;;21.50;100467.00;;;;2060959;28;20218;-51
2023/05/09 04:49:52;;;;;;;9.30;8.30;;;;;21.50;100465.00;;;;2073611;28;20221;-49
2023/05/09 04:50:52;;;;;;;14.97;10.80;;;;;21.50;100468.00;;;;2075952;28;20717;-50
2023/05/09 04:51:53;;;;;;;13.63;10.50;;;;;21.50;100463.00;;;;2076947;28;20218;-50
2023/05/09 04:52:53;;;;;;;11.23;9.50;;;;;21.50;100462.00;;;;2076284;28;20219;-50
2023/05/09 04:53:53;;;;;;;9.67;8.77;;;;;21.50;100464.00;;;;2066890;28;20217;-50
2023/05/09 04:54:54;;;;;;;9.37;8.37;;;;;21.60;100458.00;;;;2076783;28;20249;-50
2023/05/09 04:55:55;;;;;;;9.20;8.30;;;;;21.60;100456.00;;;;2075850;28;20214;-49
2023/05/09 04:56:55;;;;;;;9.37;8.27;;;;;21.60;100456.00;;;;2075112;28;20216;-49
2023/05/09 04:57:55;;;;;;;11.13;9.10;;;;;21.60;100454.00;;;;2076157;28;20220;-50
2023/05/09 04:58:56;;;;;;;10.47;7.93;;;;;21.60;100463.00;;;;2065309;28;20218;-50
2023/05/09 04:59:56;;;;;;;9.47;7.83;;;;;21.60;100451.00;;;;2076353;28;20244;-49
2023/05/09 05:00:56;;;;;;;10.20;8.13;;;;;21.60;100449.00;;;;2075446;28;20225;-49
2023/05/09 05:01:57;;;;;;;9.53;7.70;;;;;21.60;100416.00;;;;2076119;28;20225;-50